Metlakatla, Alaska
Current Conditions -  °F | °C
As of 4:36 PM on Thursday 27 Nov 2014 (Local Time) from PAMM Reporting Station
Broken Clouds Broken Clouds  
Wind Chill: 32°   Ceiling: 7000
Heat Index: 39°   Visibility: 10mi
Dew Point: 19°   Wind: 12mph
Humidity: 45%   Direction: 50°NE
Pressure: 29.74"   Gusts: 17mph
Location:  55.11°N, 131.58°W
Report Text: PAMM 280136Z AUTO 05010G15KT 10SM BKN070 04/M07 A2974 RMK AO1
Loading
Personal Weather Stations






























Interactive Weather Map New forecast layout! Learn more

10-Day Weather Forecast

Advertisements
Track Severe Weather on mobile